Time;durP1;ratioP1;P1;durP2;ratioP2;P2;SDS_P1;SDS_P2;PMS_P1;PMS_P2;Temp;Humidity;BMP_temperature;BMP_pressure;BME280_temperature;BME280_humidity;BME280_pressure;Samples;Min_cycle;Max_cycle;Signal;HPM_P1;HPM_P2
2022/04/19 00:00:53;;;;;;;4.43;1.90;;;;;;;17.52;53.60;96285.03;10331617;28;20129;-22
2022/04/19 00:05:53;;;;;;;7.00;1.85;;;;;;;17.56;53.53;96279.13;10340157;28;20168;-22
2022/04/19 00:10:53;;;;;;;1.83;1.20;;;;;;;17.52;51.86;96268.16;10380078;28;20250;-22
2022/04/19 00:15:55;;;;;;;2.28;1.08;;;;;;;17.44;51.49;96266.47;10353372;28;20030;-22
2022/04/19 00:20:56;;;;;;;2.97;2.05;;;;;;;17.45;51.62;96268.16;10329840;28;20030;-22
2022/04/19 00:25:56;;;;;;;1.45;1.10;;;;;;;17.44;51.53;96261.41;10329584;28;20033;-22
2022/04/19 00:30:57;;;;;;;2.38;1.17;;;;;;;17.39;51.49;96251.31;10329599;28;20034;-21
2022/04/19 00:35:58;;;;;;;1.83;1.13;;;;;;;17.43;51.73;96253.00;10347059;28;20041;-21
2022/04/19 00:40:58;;;;;;;1.83;1.17;;;;;;;17.34;51.73;96237.78;10329583;28;20038;-22
2022/04/19 00:46:00;;;;;;;1.75;1.10;;;;;;;17.42;51.64;96258.06;10327164;28;20381;-22
2022/04/19 00:51:00;;;;;;;3.65;1.48;;;;;;;17.40;51.57;96245.41;10327392;28;20030;-22
2022/04/19 00:56:02;;;;;;;3.10;1.70;;;;;;;17.42;51.56;96253.00;10328044;28;20077;-22
2022/04/19 01:01:03;;;;;;;4.45;1.83;;;;;;;17.47;54.09;96241.16;10326824;28;20117;-22
2022/04/19 01:06:04;;;;;;;2.88;1.70;;;;;;;17.54;54.22;96241.16;10336920;28;20069;-22
2022/04/19 01:16:33;;;;;;;2.22;1.13;;;;;;;17.49;51.64;96227.66;10342546;28;20576;-22
2022/04/19 01:21:46;;;;;;;2.00;0.93;;;;;;;17.40;51.77;96220.09;10356865;28;20036;-22
2022/04/19 01:26:53;;;;;;;2.00;1.38;;;;;;;17.40;51.81;96222.63;10364467;28;20034;-22
2022/04/19 01:31:54;;;;;;;2.17;1.13;;;;;;;17.40;51.91;96219.28;10327445;28;20117;-22
2022/04/19 01:36:57;;;;;;;2.40;1.17;;;;;;;17.40;51.94;96219.28;10325961;28;20031;-22
2022/04/19 01:41:57;;;;;;;1.38;1.13;;;;;;;17.45;51.77;96220.94;10349526;28;20038;-22
2022/04/19 01:46:58;;;;;;;1.10;0.90;;;;;;;17.44;51.77;96220.94;10366620;28;20036;-22
2022/04/19 01:52:00;;;;;;;2.20;1.05;;;;;;;17.37;51.64;96210.00;10333019;28;20041;-22
2022/04/19 01:57:00;;;;;;;2.03;1.10;;;;;;;17.43;51.55;96219.25;10325849;28;20035;-21
2022/04/19 02:02:15;;;;;;;2.83;1.50;;;;;;;17.47;53.80;96225.97;10362376;28;20036;-22
2022/04/19 02:07:15;;;;;;;7.13;2.33;;;;;;;17.53;54.42;96226.81;10340494;28;20037;-22
2022/04/19 02:12:15;;;;;;;3.37;1.30;;;;;;;17.56;54.36;96215.84;10406207;28;20495;-22
2022/04/19 02:17:23;;;;;;;2.20;1.27;;;;;;;17.51;51.71;96223.41;10349846;28;20037;-22
2022/04/19 02:22:24;;;;;;;1.70;1.10;;;;;;;17.49;52.18;96216.72;10346260;28;20034;-22
2022/04/19 02:27:26;;;;;;;2.13;1.27;;;;;;;17.48;51.57;96222.63;10334610;28;20031;-21
2022/04/19 02:32:27;;;;;;;1.60;1.17;;;;;;;17.47;51.91;96215.84;10332313;28;20045;-22
2022/04/19 02:37:28;;;;;;;1.80;1.42;;;;;;;17.39;51.80;96202.38;10333002;28;20073;-22
2022/04/19 02:42:29;;;;;;;1.15;1.00;;;;;;;17.23;51.74;96175.47;10341077;28;20565;-22
2022/04/19 02:47:30;;;;;;;3.22;1.40;;;;;;;17.46;51.74;96214.16;10374023;28;20096;-23
2022/04/19 02:52:31;;;;;;;1.88;1.00;;;;;;;17.42;51.77;96207.47;10333594;28;20088;-22
2022/04/19 02:57:33;;;;;;;1.05;0.88;;;;;;;17.45;51.82;96202.38;10331797;28;20026;-21
2022/04/19 03:02:34;;;;;;;1.83;1.27;;;;;;;17.43;51.86;96210.00;10357049;28;20029;-22
2022/04/19 03:07:34;;;;;;;4.35;1.90;;;;;;;17.52;54.71;96214.16;10332366;28;20433;-21
2022/04/19 03:12:35;;;;;;;5.27;2.27;;;;;;;17.57;54.82;96213.28;10410051;28;20033;-22
2022/04/19 03:17:44;;;;;;;1.65;0.98;;;;;;;17.46;52.25;96193.94;10371261;28;20388;-22
2022/04/19 03:28:11;;;;;;;1.50;1.10;;;;;;;17.49;51.69;96204.06;10357209;28;20036;-22
2022/04/19 03:33:12;;;;;;;1.40;0.95;;;;;;;17.48;51.94;96208.25;10331546;28;20081;-22
2022/04/19 03:38:12;;;;;;;1.40;0.98;;;;;;;17.46;51.69;96204.03;10330663;28;20034;-23
2022/04/19 03:43:13;;;;;;;2.80;1.10;;;;;;;17.47;51.63;96205.72;10329824;28;20034;-21
2022/04/19 03:48:16;;;;;;;2.30;1.57;;;;;;;17.48;51.79;96212.50;10331932;28;20026;-22
2022/04/19 03:53:17;;;;;;;2.13;1.48;;;;;;;17.50;51.92;96200.69;10329555;28;20285;-23
2022/04/19 03:58:17;;;;;;;1.30;1.03;;;;;;;17.37;51.66;96189.75;10349489;28;20045;-22
2022/04/19 04:03:18;;;;;;;1.48;0.90;;;;;;;17.50;51.65;96209.09;10364634;28;20029;-21
2022/04/19 04:08:18;;;;;;;4.07;1.15;;;;;;;17.56;54.46;96213.31;10336811;28;20471;-22
2022/04/19 04:13:24;;;;;;;4.63;1.40;;;;;;;17.62;54.69;96210.72;10380858;28;20030;-22
2022/04/19 04:18:25;;;;;;;4.40;1.27;;;;;;;17.60;52.88;96214.97;10328011;28;20058;-21
2022/04/19 04:23:26;;;;;;;2.33;0.95;;;;;;;17.58;52.19;96211.59;10328340;28;20061;-22
2022/04/19 04:28:27;;;;;;;3.00;1.48;;;;;;;17.52;51.83;96207.41;10333552;28;20030;-22
2022/04/19 04:33:28;;;;;;;1.55;0.80;;;;;;;17.53;51.63;96211.63;10327465;28;20026;-22
2022/04/19 04:38:28;;;;;;;2.37;0.77;;;;;;;17.55;51.83;96212.44;10328330;28;20030;-22
2022/04/19 04:43:31;;;;;;;1.38;0.80;;;;;;;17.54;51.86;96212.44;10327488;28;20259;-22
2022/04/19 04:53:50;;;;;;;1.60;1.30;;;;;;;17.53;51.33;96211.63;10367530;28;20432;-22
2022/04/19 04:58:57;;;;;;;3.20;1.55;;;;;;;17.54;51.89;96207.38;10352007;28;20037;-22
2022/04/19 05:04:00;;;;;;;1.48;0.80;;;;;;;17.53;51.76;96205.72;10336809;28;20038;-22
2022/04/19 05:09:00;;;;;;;2.95;1.17;;;;;;;17.58;54.09;96216.66;10346170;28;20029;-22
2022/04/19 05:14:01;;;;;;;3.63;1.15;;;;;;;17.63;54.59;96218.31;10386039;28;20407;-21
2022/04/19 05:19:05;;;;;;;1.95;1.27;;;;;;;17.61;54.46;96209.03;10355853;28;20073;-22
2022/04/19 05:24:11;;;;;;;1.67;0.90;;;;;;;17.61;52.59;96209.03;10325944;28;20030;-22
2022/04/19 05:29:12;;;;;;;2.03;0.73;;;;;;;17.52;52.14;96193.91;10325008;28;20408;-22
2022/04/19 05:34:13;;;;;;;1.60;0.73;;;;;;;17.61;52.29;96204.84;10325987;28;20066;-21
2022/04/19 05:39:15;;;;;;;1.25;1.05;;;;;;;17.60;52.07;96207.38;10327511;28;20076;-22
2022/04/19 05:44:16;;;;;;;2.75;1.13;;;;;;;17.54;52.28;96197.25;10357803;28;20033;-22
2022/04/19 05:49:17;;;;;;;2.33;0.90;;;;;;;17.59;51.77;96210.75;10353161;28;20038;-22
2022/04/19 05:54:22;;;;;;;2.80;1.17;;;;;;;17.61;51.80;96214.13;10362283;28;20042;-23
2022/04/19 05:59:30;;;;;;;1.60;0.98;;;;;;;17.56;52.88;96208.25;10358023;28;20033;-22
2022/04/19 06:09:50;;;;;;;1.70;0.90;;;;;;;17.61;51.93;96224.22;10382531;28;20124;-22
2022/04/19 06:14:51;;;;;;;2.50;1.02;;;;;;;17.72;53.43;96215.75;10345277;28;20518;-21
2022/04/19 06:19:55;;;;;;;1.00;0.80;;;;;;;17.74;53.07;96221.63;10358087;28;20164;-22
2022/04/19 06:24:56;;;;;;;2.92;0.85;;;;;;;17.69;51.85;96214.91;10325422;28;20500;-21
2022/04/19 06:29:58;;;;;;;2.90;1.60;;;;;;;17.69;51.68;96208.19;10324549;28;20041;-22
2022/04/19 06:34:58;;;;;;;1.73;0.73;;;;;;;17.65;51.98;96213.25;10325013;28;20062;-22
2022/04/19 06:40:02;;;;;;;5.75;1.42;;;;;;;17.45;47.94;96215.03;10326022;28;20102;-22
2022/04/19 06:45:04;;;;;;;4.95;1.67;;;;;;;17.27;47.83;96210.00;10326701;28;20041;-22
2022/04/19 06:50:08;;;;;;;7.30;1.48;;;;;;;17.18;47.26;96203.31;10332446;28;20042;-22
2022/04/19 06:55:09;;;;;;;6.75;1.30;;;;;;;17.26;46.21;96213.38;10325959;28;20034;-22
2022/04/19 07:00:10;;;;;;;3.83;1.70;;;;;;;17.22;45.77;96209.16;10331197;28;20513;-22
2022/04/19 07:05:12;;;;;;;2.90;1.63;;;;;;;17.24;45.70;96212.56;10341299;28;20392;-22
2022/04/19 07:10:14;;;;;;;1.50;1.30;;;;;;;17.16;45.18;96214.25;10370480;28;20033;-22
2022/04/19 07:15:14;;;;;;;1.63;1.30;;;;;;;17.26;45.29;96213.38;10354024;28;20031;-22
2022/04/19 07:30:58;;;;;;;9.30;2.40;;;;;;;17.44;46.50;96205.75;10351127;28;20042;-22
2022/04/19 07:35:59;;;;;;;10.32;2.42;;;;;;;17.48;46.90;96204.91;10330270;28;20153;-22
2022/04/19 07:40:59;;;;;;;4.43;1.30;;;;;;;17.31;46.57;96211.69;10345068;28;20112;-21
2022/04/19 07:46:01;;;;;;;4.60;1.50;;;;;;;17.20;44.67;96196.53;10370513;28;20109;-21
2022/04/19 07:51:03;;;;;;;4.03;1.40;;;;;;;17.12;43.09;96197.41;10325469;28;20056;-23
2022/04/19 07:56:04;;;;;;;3.42;1.85;;;;;;;17.00;44.11;96193.22;10329488;28;20273;-22
2022/04/19 08:01:05;;;;;;;5.00;2.08;;;;;;;16.97;44.17;96184.78;10329689;28;20214;-21
2022/04/19 08:06:06;;;;;;;8.77;1.90;;;;;;;16.98;45.78;96186.50;10339079;28;20404;-22
2022/04/19 08:11:07;;;;;;;6.40;1.95;;;;;;;17.22;47.36;96188.94;10381900;28;20041;-22
2022/04/19 08:16:08;;;;;;;15.45;2.58;;;;;;;17.38;47.61;96188.06;10331605;28;20034;-23
2022/04/19 08:21:08;;;;;;;5.13;1.75;;;;;;;17.41;43.96;96183.00;10328943;28;20041;-22
2022/04/19 08:26:09;;;;;;;6.03;1.50;;;;;;;17.18;45.84;96172.09;10328286;28;20027;-21
2022/04/19 08:31:09;;;;;;;9.18;1.60;;;;;;;17.27;47.56;96177.97;10344928;28;20040;-22
2022/04/19 08:36:10;;;;;;;7.13;1.60;;;;;;;17.34;48.19;96176.25;10361331;28;20092;-23
2022/04/19 08:41:11;;;;;;;8.50;2.40;;;;;;;17.37;48.30;96171.19;10362054;28;20053;-22
2022/04/19 08:46:14;;;;;;;6.60;1.45;;;;;;;17.38;48.82;96165.28;10355994;28;20359;-22
2022/04/19 08:51:19;;;;;;;7.65;1.42;;;;;;;17.39;48.97;96161.91;10363580;28;20458;-22
2022/04/19 09:01:39;;;;;;;10.27;1.67;;;;;;;17.30;47.08;96162.78;10352677;28;20034;-22
2022/04/19 09:06:57;;;;;;;4.22;1.92;;;;;;;17.34;48.38;96159.38;10358109;28;20037;-23
2022/04/19 09:12:12;;;;;;;5.70;1.75;;;;;;;17.38;48.89;96165.28;10389974;28;20060;-22
2022/04/19 09:17:13;;;;;;;5.20;1.88;;;;;;;17.49;47.58;96148.38;10326844;28;20552;-22
2022/04/19 09:22:24;;;;;;;12.13;2.55;;;;;;;17.45;45.78;96146.69;10363438;28;20105;-22
2022/04/19 09:27:32;;;;;;;6.13;1.50;;;;;;;17.45;48.68;96141.63;10352280;28;20516;-24
2022/04/19 09:32:32;;;;;;;3.85;1.08;;;;;;;17.43;49.87;96143.34;10327732;28;20068;-22
2022/04/19 09:37:34;;;;;;;3.07;1.47;;;;;;;17.41;49.81;96133.22;10327500;28;20038;-22
2022/04/19 09:42:37;;;;;;;4.18;1.60;;;;;;;17.41;50.22;96129.88;10331230;28;20080;-23
2022/04/19 09:47:50;;;;;;;2.35;1.52;;;;;;;17.41;50.35;96122.28;10367229;28;20056;-21
2022/04/19 09:52:51;;;;;;;4.28;1.30;;;;;;;17.40;50.27;96118.06;10327915;28;20575;-22
2022/04/19 09:57:52;;;;;;;2.75;1.30;;;;;;;17.40;50.55;96110.47;10326908;28;20084;-22
2022/04/19 10:08:21;;;;;;;1.88;1.10;;;;;;;17.39;50.69;96096.97;10332302;28;20113;-21
2022/04/19 10:13:23;;;;;;;2.88;1.23;;;;;;;17.40;50.90;96100.34;10379007;28;20125;-23
2022/04/19 10:18:23;;;;;;;3.00;1.33;;;;;;;17.53;50.89;96099.41;10326631;28;20034;-22
2022/04/19 10:23:35;;;;;;;5.50;1.20;;;;;;;17.56;50.50;96096.88;10326273;28;20042;-23
2022/04/19 10:28:35;;;;;;;4.88;2.13;;;;;;;17.51;50.44;96096.06;10326349;28;20488;-22
2022/04/19 10:33:39;;;;;;;3.10;1.30;;;;;;;17.46;50.59;96097.78;10333354;28;20409;-22
2022/04/19 10:38:40;;;;;;;4.22;1.00;;;;;;;17.40;51.04;96087.69;10369885;28;20317;-21
2022/04/19 10:44:19;;;;;;;2.05;1.35;;;;;;;17.41;51.06;96089.38;10373847;28;20063;-23
2022/04/19 10:49:23;;;;;;;2.53;1.25;;;;;;;17.40;50.77;96088.53;10333744;28;20042;-21
2022/04/19 10:55:06;;;;;;;1.60;1.05;;;;;;;17.41;51.18;96084.31;10333288;28;20041;-22
2022/04/19 11:00:45;;;;;;;5.20;1.85;;;;;;;17.39;51.33;96086.00;10364511;28;20045;-21
2022/04/19 11:05:50;;;;;;;2.00;1.08;;;;;;;17.39;51.19;96070.81;10361084;28;20046;-22
2022/04/19 11:11:02;;;;;;;2.05;0.98;;;;;;;17.39;51.21;96063.22;10398083;28;20522;-22
2022/04/19 11:16:05;;;;;;;5.15;1.20;;;;;;;17.45;51.78;96060.66;10350586;28;20046;-22
2022/04/19 11:21:13;;;;;;;3.72;1.10;;;;;;;17.57;51.51;96053.00;10332993;28;20038;-22
2022/04/19 11:26:34;;;;;;;2.63;0.95;;;;;;;17.58;51.17;96042.03;10331963;28;20041;-21
2022/04/19 11:31:44;;;;;;;3.92;1.30;;;;;;;17.48;51.16;96045.47;10332044;28;20429;-22
2022/04/19 11:36:44;;;;;;;3.05;1.02;;;;;;;17.43;51.03;96042.13;10362721;28;20048;-22
2022/04/19 11:47:07;;;;;;;1.70;1.05;;;;;;;17.41;51.33;96038.78;10371214;28;20277;-22
2022/04/19 11:52:11;;;;;;;2.33;1.13;;;;;;;17.39;51.37;96036.25;10335901;28;20038;-22
2022/04/19 11:57:12;;;;;;;1.50;0.85;;;;;;;17.39;51.49;96036.25;10336353;28;20192;-21
2022/04/19 12:02:15;;;;;;;1.80;0.90;;;;;;;17.38;51.42;96028.66;10371134;28;20036;-22
2022/04/19 12:07:16;;;;;;;0.82;0.77;;;;;;;17.38;51.47;96029.50;10333668;28;20425;-21
2022/04/19 12:12:19;;;;;;;0.90;0.73;;;;;;;17.38;50.93;96032.03;10402341;28;20029;-22
2022/04/19 12:17:21;;;;;;;4.38;1.00;;;;;;;17.44;51.89;96024.41;10335407;28;20045;-22
2022/04/19 12:22:23;;;;;;;2.33;1.60;;;;;;;17.57;51.83;96015.88;10365976;28;20088;-22
2022/04/19 12:27:37;;;;;;;3.33;1.10;;;;;;;17.61;51.37;96011.63;10358266;28;20038;-22
2022/04/19 12:32:55;;;;;;;2.67;0.93;;;;;;;17.54;51.26;96015.03;10329672;28;20472;-23
2022/04/19 12:38:16;;;;;;;1.67;0.80;;;;;;;17.44;51.17;96008.38;10329803;28;20038;-22
2022/04/19 12:43:18;;;;;;;2.00;0.80;;;;;;;17.40;51.29;96002.50;10328950;28;20053;-22
2022/04/19 12:48:20;;;;;;;0.75;0.70;;;;;;;17.40;51.26;95996.63;10329662;28;20026;-22
2022/04/19 12:53:24;;;;;;;1.40;0.80;;;;;;;17.40;51.45;95996.63;10328665;28;20093;-22
2022/04/19 12:58:25;;;;;;;1.20;0.68;;;;;;;17.39;51.61;95984.78;10350915;28;20459;-23
2022/04/19 13:03:25;;;;;;;1.10;0.75;;;;;;;17.38;51.51;95981.44;10363411;28;20034;-23
2022/04/19 13:13:48;;;;;;;1.05;0.70;;;;;;;17.37;51.57;95973.84;10377734;28;20073;-21
2022/04/19 13:18:49;;;;;;;1.23;0.90;;;;;;;17.41;51.70;95973.00;10328177;28;20081;-22
2022/04/19 13:23:49;;;;;;;1.77;1.20;;;;;;;17.56;52.12;95973.69;10327900;28;20038;-22
2022/04/19 13:28:50;;;;;;;0.97;0.77;;;;;;;17.61;52.24;95966.91;10327595;28;20031;-22
2022/04/19 13:33:50;;;;;;;1.27;0.83;;;;;;;17.57;51.39;95964.44;10327620;28;20501;-22
2022/04/19 13:38:51;;;;;;;1.40;0.98;;;;;;;17.39;51.49;95949.38;10328234;28;20034;-22
2022/04/19 13:43:52;;;;;;;1.25;0.70;;;;;;;17.37;51.57;95948.56;10327072;28;20046;-22
2022/04/19 13:48:53;;;;;;;1.10;0.77;;;;;;;17.40;51.53;95951.91;10335684;28;20480;-21
2022/04/19 13:53:53;;;;;;;1.50;1.00;;;;;;;17.40;51.62;95951.06;10367686;28;20116;-22
2022/04/19 13:58:55;;;;;;;0.97;0.60;;;;;;;17.39;51.69;95949.38;10351391;28;20065;-22
2022/04/19 14:03:55;;;;;;;1.70;1.05;;;;;;;17.39;51.70;95954.44;10339377;28;20026;-22
2022/04/19 14:08:57;;;;;;;1.00;0.90;;;;;;;17.39;51.66;95951.91;10352755;28;20025;-22
2022/04/19 14:13:58;;;;;;;1.05;0.80;;;;;;;17.38;51.83;95951.06;10395360;28;20042;-21
2022/04/19 14:18:58;;;;;;;1.10;1.00;;;;;;;17.39;51.53;95944.31;10343486;28;20412;-21
2022/04/19 14:23:59;;;;;;;1.48;0.68;;;;;;;17.50;52.40;95938.31;10375429;28;20042;-22
2022/04/19 14:34:18;;;;;;;0.82;0.82;;;;;;;17.60;51.94;95941.63;10334377;28;20042;-23
2022/04/19 14:39:19;;;;;;;3.17;0.80;;;;;;;17.52;51.63;95940.84;10334427;28;20038;-22
2022/04/19 14:44:19;;;;;;;0.87;0.80;;;;;;;17.45;51.65;95944.28;10333507;28;20653;-24
2022/04/19 14:49:19;;;;;;;1.10;0.80;;;;;;;17.43;51.71;95956.09;10345498;28;20387;-22
2022/04/19 14:54:20;;;;;;;0.60;0.57;;;;;;;17.40;51.72;95954.44;10374008;28;20040;-22
2022/04/19 14:59:21;;;;;;;0.73;0.73;;;;;;;17.39;51.77;95949.38;10358144;28;20221;-22
2022/04/19 15:04:21;;;;;;;1.35;0.70;;;;;;;17.37;52.03;95941.81;10343631;28;20034;-22
2022/04/19 15:09:22;;;;;;;1.17;0.73;;;;;;;17.36;52.07;95944.34;10358332;28;20045;-22
2022/04/19 15:14:23;;;;;;;1.55;1.08;;;;;;;17.37;51.96;95943.50;10363464;28;20042;-21
2022/04/19 15:19:23;;;;;;;0.93;0.75;;;;;;;17.36;51.98;95944.34;10334816;28;20050;-22
2022/04/19 15:24:23;;;;;;;0.97;0.80;;;;;;;17.42;52.48;95941.78;10332594;28;20038;-23
2022/04/19 15:29:29;;;;;;;2.17;0.75;;;;;;;17.56;53.10;95939.97;10332302;28;20870;-23
2022/04/19 15:34:29;;;;;;;0.82;0.80;;;;;;;17.61;53.08;95936.53;10330537;28;20553;-22
2022/04/19 15:39:30;;;;;;;0.80;0.60;;;;;;;17.56;51.97;95934.91;10333020;28;20106;-22
2022/04/19 15:44:30;;;;;;;0.90;0.80;;;;;;;17.48;51.78;95934.13;10359652;28;20044;-23
2022/04/19 15:49:30;;;;;;;0.63;0.60;;;;;;;17.37;51.94;95921.56;10357742;28;20042;-22
2022/04/19 15:54:31;;;;;;;0.50;0.50;;;;;;;17.39;51.94;95929.97;10331297;28;20289;-22
2022/04/19 15:59:31;;;;;;;0.57;0.40;;;;;;;17.37;51.81;95921.56;10331341;28;20038;-22
2022/04/19 16:04:33;;;;;;;2.33;0.60;;;;;;;17.36;52.36;95922.44;10341072;28;20344;-23
2022/04/19 16:09:33;;;;;;;0.80;0.60;;;;;;;17.36;51.88;95921.56;10358317;28;20123;-22
2022/04/19 16:14:33;;;;;;;0.90;0.70;;;;;;;17.34;52.31;95916.47;10361612;28;20140;-22
2022/04/19 16:24:53;;;;;;;0.82;0.80;;;;;;;17.34;52.02;95925.78;10330254;28;20042;-22
2022/04/19 16:29:54;;;;;;;1.25;1.00;;;;;;;17.50;53.53;95923.13;10328828;28;20511;-23
2022/04/19 16:34:55;;;;;;;0.77;0.75;;;;;;;17.59;53.66;95917.97;10330293;28;20030;-22
2022/04/19 16:39:55;;;;;;;1.83;0.90;;;;;;;17.58;52.19;95910.41;10329670;28;20038;-23
2022/04/19 16:44:55;;;;;;;1.35;0.63;;;;;;;17.49;52.08;95911.34;10328596;28;20045;-22
2022/04/19 16:49:56;;;;;;;0.63;0.63;;;;;;;17.42;51.94;95913.94;10329135;28;20121;-22
2022/04/19 16:54:57;;;;;;;0.63;0.50;;;;;;;17.39;51.90;95913.94;10328648;28;20042;-21
2022/04/19 16:59:57;;;;;;;0.70;0.70;;;;;;;17.35;52.20;95915.66;10329348;28;20060;-21
2022/04/19 17:04:57;;;;;;;1.47;0.77;;;;;;;17.36;52.15;95914.00;10355823;28;20570;-21
2022/04/19 17:09:58;;;;;;;0.82;0.73;;;;;;;17.35;52.29;95904.69;10386020;28;20496;-22
2022/04/19 17:14:58;;;;;;;1.13;0.80;;;;;;;17.34;52.17;95908.91;10338750;28;20043;-24
2022/04/19 17:19:59;;;;;;;0.80;0.73;;;;;;;17.34;52.06;95916.47;10327992;28;20053;-22
2022/04/19 17:24:59;;;;;;;1.57;1.10;;;;;;;17.34;52.21;95911.44;10328075;28;20101;-21
2022/04/19 17:30:00;;;;;;;0.40;0.40;;;;;;;17.35;52.28;95920.72;10327675;28;20038;-21
2022/04/19 17:35:00;;;;;;;1.10;0.90;;;;;;;17.55;54.66;95913.81;10327315;28;20037;-22
2022/04/19 17:40:02;;;;;;;0.90;0.67;;;;;;;17.62;54.37;95923.03;10327383;28;20034;-22
2022/04/19 17:45:03;;;;;;;1.85;0.50;;;;;;;17.56;52.60;95928.13;10327020;28;20034;-22
2022/04/19 18:00:41;;;;;;;0.50;0.50;;;;;;;17.36;52.26;95950.25;10327268;28;20521;-22
2022/04/19 18:05:42;;;;;;;1.43;0.50;;;;;;;17.35;52.24;95952.75;10337364;28;20034;-22
2022/04/19 18:10:43;;;;;;;0.77;0.70;;;;;;;17.33;52.37;95964.59;10374049;28;20061;-22
2022/04/19 18:15:43;;;;;;;0.52;0.52;;;;;;;17.33;51.80;95964.59;10376158;28;20045;-22
2022/04/19 18:20:45;;;;;;;1.33;0.82;;;;;;;17.32;52.25;95973.03;10342724;28;20113;-23
2022/04/19 18:25:45;;;;;;;0.68;0.68;;;;;;;17.32;52.33;95973.03;10326771;28;20034;-22
2022/04/19 18:30:46;;;;;;;0.50;0.50;;;;;;;17.32;52.14;95978.09;10351550;28;20042;-21
2022/04/19 18:35:46;;;;;;;0.73;0.73;;;;;;;17.47;54.57;95980.50;10342575;28;20035;-22
2022/04/19 18:40:47;;;;;;;1.17;0.63;;;;;;;17.57;54.44;95985.50;10326371;28;20038;-22
2022/04/19 18:45:47;;;;;;;0.50;0.43;;;;;;;17.60;53.20;95997.28;10351863;28;20299;-22
2022/04/19 18:50:48;;;;;;;0.63;0.50;;;;;;;17.52;52.34;96004.09;10343366;28;20097;-22
2022/04/19 18:55:48;;;;;;;0.98;0.50;;;;;;;17.45;52.55;96015.13;10333569;28;20053;-22
2022/04/19 19:00:49;;;;;;;0.77;0.47;;;;;;;17.40;52.47;96021.91;10333928;28;20042;-22
2022/04/19 19:05:49;;;;;;;0.82;0.80;;;;;;;17.33;52.31;96030.38;10343669;28;20058;-22
2022/04/19 19:10:50;;;;;;;0.80;0.50;;;;;;;17.34;52.16;96045.50;10378020;28;20029;-22
2022/04/19 19:15:50;;;;;;;0.57;0.55;;;;;;;17.33;52.21;96043.84;10373097;28;20038;-22
2022/04/19 19:20:51;;;;;;;0.83;0.43;;;;;;;17.30;52.46;96053.13;10347911;28;20404;-22
2022/04/19 19:25:51;;;;;;;0.55;0.50;;;;;;;17.32;52.32;96064.09;10331926;28;20447;-22
2022/04/19 19:30:51;;;;;;;0.57;0.50;;;;;;;17.33;52.38;96070.84;10332084;28;20034;-22
2022/04/19 19:35:53;;;;;;;0.83;0.60;;;;;;;17.30;52.36;96065.78;10356274;28;20779;-21
2022/04/19 19:40:53;;;;;;;1.05;0.65;;;;;;;17.50;54.17;96074.13;10372302;28;20038;-22
2022/04/19 19:45:53;;;;;;;1.23;0.73;;;;;;;17.61;54.06;96072.38;10336177;28;20034;-21
2022/04/19 19:50:54;;;;;;;0.70;0.63;;;;;;;17.60;53.14;96078.28;10332061;28;20497;-22
2022/04/19 19:55:54;;;;;;;1.00;0.60;;;;;;;17.49;52.61;96077.53;10331244;28;20049;-22
2022/04/19 20:00:55;;;;;;;1.02;0.50;;;;;;;17.42;52.45;96086.00;10330424;28;20060;-22
2022/04/19 20:05:55;;;;;;;0.70;0.60;;;;;;;17.39;52.22;96091.06;10341174;28;20038;-22
2022/04/19 20:10:56;;;;;;;0.43;0.43;;;;;;;17.38;52.21;96094.44;10380620;28;20033;-21
2022/04/19 20:15:56;;;;;;;0.93;0.60;;;;;;;17.35;52.36;96094.44;10348319;28;20101;-22
2022/04/19 20:20:57;;;;;;;0.87;0.60;;;;;;;17.35;52.32;96096.97;10330348;28;20440;-22
2022/04/19 20:25:57;;;;;;;0.73;0.50;;;;;;;17.35;52.24;96099.50;10330254;28;20497;-22
2022/04/19 20:30:58;;;;;;;0.93;0.60;;;;;;;17.33;52.34;96106.25;10330400;28;20042;-22
2022/04/19 20:35:58;;;;;;;0.50;0.50;;;;;;;17.33;52.50;96111.31;10354386;28;20492;-22
2022/04/19 20:40:59;;;;;;;0.98;0.70;;;;;;;17.30;52.30;96109.63;10368861;28;20115;-22
2022/04/19 20:45:59;;;;;;;0.50;0.50;;;;;;;17.52;54.30;96110.41;10328775;28;20033;-22
2022/04/19 20:50:59;;;;;;;0.80;0.70;;;;;;;17.59;53.94;96104.44;10329097;28;20347;-22
2022/04/19 20:56:00;;;;;;;0.45;0.40;;;;;;;17.53;52.79;96105.34;10329015;28;20094;-22
2022/04/19 21:01:03;;;;;;;0.77;0.60;;;;;;;17.44;52.68;96102.84;10328868;28;20041;-22
2022/04/19 21:06:04;;;;;;;0.50;0.50;;;;;;;17.39;52.45;96103.72;10364630;28;20033;-23
2022/04/19 21:11:04;;;;;;;0.50;0.50;;;;;;;17.36;52.48;96098.69;10386845;28;20038;-22
2022/04/19 21:16:05;;;;;;;0.50;0.47;;;;;;;17.35;52.32;96095.28;10327771;28;20042;-22
2022/04/19 21:21:06;;;;;;;0.63;0.60;;;;;;;17.27;52.40;96086.03;10354793;28;20300;-22
2022/04/19 21:26:07;;;;;;;1.10;0.77;;;;;;;17.32;52.02;96089.41;10366595;28;20056;-22
2022/04/19 21:31:07;;;;;;;0.30;0.30;;;;;;;17.31;52.23;96086.03;10328072;28;20473;-22
2022/04/19 21:36:08;;;;;;;0.90;0.75;;;;;;;17.31;52.39;96088.56;10353659;28;20492;-22
2022/04/19 21:41:08;;;;;;;0.70;0.63;;;;;;;17.29;52.34;96085.19;10368141;28;20400;-21
2022/04/19 21:46:09;;;;;;;0.60;0.50;;;;;;;17.35;53.30;96080.09;10329509;28;20042;-23
2022/04/19 21:51:09;;;;;;;0.70;0.50;;;;;;;17.51;54.30;96073.28;10353796;28;20037;-22
2022/04/19 21:56:09;;;;;;;0.53;0.47;;;;;;;17.57;53.83;96071.53;10361786;28;20134;-22
2022/04/19 22:01:18;;;;;;;0.70;0.50;;;;;;;17.49;52.59;96075.00;10326689;28;20053;-22
2022/04/19 22:06:20;;;;;;;0.60;0.50;;;;;;;17.41;52.63;96064.06;10337898;28;20077;-22
2022/04/19 22:11:20;;;;;;;0.50;0.50;;;;;;;17.39;52.52;96066.59;10384093;28;20433;-22
2022/04/19 22:16:21;;;;;;;0.70;0.47;;;;;;;17.38;52.31;96074.19;10330927;28;20050;-22
2022/04/19 22:21:21;;;;;;;0.50;0.40;;;;;;;17.30;52.48;96071.69;10326351;28;20038;-22
2022/04/19 22:26:21;;;;;;;0.40;0.40;;;;;;;17.30;52.33;96065.78;10331430;28;20554;-22
2022/04/19 22:31:22;;;;;;;1.20;0.70;;;;;;;17.25;52.32;96058.22;10335041;28;20042;-22
2022/04/19 22:36:23;;;;;;;0.90;0.57;;;;;;;17.30;52.41;96066.63;10333682;28;20337;-23
2022/04/19 22:41:23;;;;;;;0.82;0.73;;;;;;;17.32;52.31;96066.63;10334912;28;20512;-22
2022/04/19 22:46:24;;;;;;;0.50;0.50;;;;;;;17.32;52.40;96059.03;10334284;28;20026;-23
2022/04/19 22:51:26;;;;;;;0.40;0.40;;;;;;;17.39;53.67;96060.69;10362482;28;20274;-22
2022/04/19 22:56:26;;;;;;;0.73;0.63;;;;;;;17.52;54.03;96069.91;10373285;28;20124;-22
2022/04/19 23:01:27;;;;;;;0.73;0.70;;;;;;;17.55;53.38;96072.41;10334255;28;20400;-22
2022/04/19 23:06:27;;;;;;;2.43;0.90;;;;;;;17.47;52.76;96058.97;10333267;28;20447;-22
2022/04/19 23:11:28;;;;;;;0.57;0.43;;;;;;;17.42;52.40;96068.28;10383034;28;20367;-22
2022/04/19 23:16:28;;;;;;;0.90;0.60;;;;;;;17.38;52.36;96062.41;10373460;28;20045;-22
2022/04/19 23:21:28;;;;;;;0.80;0.50;;;;;;;17.36;52.27;96066.63;10343559;28;20117;-22
2022/04/19 23:31:48;;;;;;;0.73;0.52;;;;;;;17.34;52.46;96063.22;10367226;28;20092;-21
2022/04/19 23:36:48;;;;;;;0.70;0.68;;;;;;;17.34;52.37;96073.34;10338855;28;20116;-23
2022/04/19 23:41:49;;;;;;;0.73;0.65;;;;;;;17.33;52.37;96068.31;10331873;28;20539;-23
2022/04/19 23:46:49;;;;;;;0.50;0.50;;;;;;;17.32;52.35;96066.63;10331161;28;20109;-22
2022/04/19 23:51:50;;;;;;;0.50;0.50;;;;;;;17.30;52.52;96073.38;10331498;28;20061;-22
2022/04/19 23:56:51;;;;;;;0.40;0.40;;;;;;;17.40;53.86;96077.59;10331486;28;20289;-22
